Holy Winds, Batman

11:44 AM Friday, April 15, 2011

Still grounded for medicine changes. But as it turns out I wouldn't want to be up the past couple of days anyway.

KDVN 151552Z AUTO 08029G36KT 10SM FEW080 09/00 A2967 RMK AO2 PK WND 08040/1541 PRESFR SLP048 T00890000

That translates to winds from 080 degrees at 29kts gusting to 36kts with peak winds at 080 at 40kts.

Not something I want to go flying in with a little piper cherokee. It might not be so bad if the wind were blowing down the runway but it is not. Closest alignment is 03 giving a 50 degree crosswind component = 25kts. The forcast has it being windy for the next few days, which I am fine with, get it out of your system while I can't go flying :)

0 comments:

Post a Comment